createdAt,value
2018-04-14T00:01:59.381Z,16.69
2018-04-14T00:04:26.929Z,16.55
2018-04-14T00:06:54.431Z,16.47
2018-04-14T00:09:21.939Z,16.46
2018-04-14T00:11:49.463Z,16.31
2018-04-14T00:14:17.012Z,16.30
2018-04-14T00:16:44.528Z,16.32
2018-04-14T00:19:12.081Z,16.34
2018-04-14T00:21:39.717Z,16.34
2018-04-14T00:24:07.286Z,16.28
2018-04-14T00:26:34.841Z,16.15
2018-04-14T00:29:02.411Z,16.18
2018-04-14T00:31:29.920Z,15.99
2018-04-14T00:33:57.476Z,15.91
2018-04-14T00:36:25.044Z,15.75
2018-04-14T00:38:52.551Z,15.57
2018-04-14T00:41:20.065Z,15.51
2018-04-14T00:43:47.585Z,15.49
2018-04-14T00:46:15.142Z,15.68
2018-04-14T00:48:42.670Z,15.77
2018-04-14T00:51:10.232Z,15.68
2018-04-14T00:53:47.729Z,15.51
2018-04-14T00:56:15.231Z,15.44
2018-04-14T00:58:42.775Z,15.53
2018-04-14T01:01:10.279Z,15.58
2018-04-14T01:03:37.786Z,15.66
2018-04-14T01:06:05.299Z,15.53
2018-04-14T01:08:32.807Z,15.68
2018-04-14T01:11:00.318Z,15.65
2018-04-14T01:13:27.867Z,15.63
2018-04-14T01:15:55.370Z,15.62
2018-04-14T01:18:22.883Z,15.42
2018-04-14T01:20:50.395Z,15.36
2018-04-14T01:23:17.938Z,15.49
2018-04-14T01:25:45.444Z,15.55
2018-04-14T01:28:12.948Z,15.62
2018-04-14T01:30:40.515Z,15.55
2018-04-14T01:33:08.023Z,15.59
2018-04-14T01:35:35.532Z,15.57
2018-04-14T01:38:03.037Z,15.51
2018-04-14T01:40:30.583Z,15.45
2018-04-14T01:42:58.093Z,15.44
2018-04-14T01:45:25.616Z,15.46
2018-04-14T01:47:53.159Z,15.41
2018-04-14T01:50:20.681Z,15.50
2018-04-14T01:52:48.245Z,15.46
2018-04-14T01:55:15.769Z,15.49
2018-04-14T01:57:43.277Z,15.53
2018-04-14T02:00:10.828Z,15.47
2018-04-14T02:02:38.333Z,15.50
2018-04-14T02:05:05.883Z,15.51
2018-04-14T02:07:33.411Z,15.50
2018-04-14T02:10:00.958Z,15.39
2018-04-14T02:12:28.475Z,15.50
2018-04-14T02:14:55.996Z,15.52
2018-04-14T02:17:23.504Z,15.34
2018-04-14T02:19:51.057Z,15.28
2018-04-14T02:22:18.566Z,15.32
2018-04-14T02:24:46.111Z,15.32
2018-04-14T02:27:13.670Z,15.32
2018-04-14T02:29:41.184Z,15.29
2018-04-14T02:32:08.693Z,15.38
2018-04-14T02:34:36.217Z,15.46
2018-04-14T02:37:03.780Z,15.43
2018-04-14T02:39:31.328Z,15.42
2018-04-14T02:41:58.846Z,15.38
2018-04-14T02:44:26.397Z,15.32
2018-04-14T02:46:53.937Z,15.34
2018-04-14T02:49:21.454Z,15.33
2018-04-14T02:51:48.972Z,15.01
2018-04-14T02:54:16.516Z,14.96
2018-04-14T02:56:44.020Z,14.88
2018-04-14T02:59:11.527Z,15.03
2018-04-14T03:01:39.082Z,15.08
2018-04-14T03:04:06.589Z,15.00
2018-04-14T03:06:34.100Z,15.01
2018-04-14T03:09:01.644Z,14.94
2018-04-14T03:11:29.152Z,14.90
2018-04-14T03:13:56.700Z,14.85
2018-04-14T03:16:24.208Z,14.86
2018-04-14T03:18:51.763Z,14.86
2018-04-14T03:21:19.267Z,14.77
2018-04-14T03:23:46.815Z,14.67
2018-04-14T03:26:14.315Z,14.72
2018-04-14T03:28:41.824Z,14.70
2018-04-14T03:31:09.363Z,14.67
2018-04-14T03:33:36.884Z,14.65
2018-04-14T03:36:04.400Z,14.69
2018-04-14T03:38:31.912Z,14.60
2018-04-14T03:40:59.472Z,14.52
2018-04-14T03:43:26.983Z,14.45
2018-04-14T03:45:54.482Z,14.47
2018-04-14T03:48:21.995Z,14.52
2018-04-14T03:50:49.495Z,14.54
2018-04-14T03:53:17.003Z,14.43
2018-04-14T03:55:44.510Z,14.41
2018-04-14T03:58:12.027Z,14.37
2018-04-14T04:00:39.575Z,14.04
2018-04-14T04:03:07.095Z,14.21
2018-04-14T04:05:34.608Z,14.30
2018-04-14T04:08:02.119Z,14.40
2018-04-14T04:10:29.627Z,14.58
2018-04-14T04:12:57.131Z,14.59
2018-04-14T04:15:24.643Z,14.85
2018-04-14T04:17:52.197Z,14.93
2018-04-14T04:20:32.331Z,14.87
2018-04-14T04:26:05.030Z,15.01
2018-04-14T04:28:32.539Z,15.06
2018-04-14T04:31:00.095Z,15.17
2018-04-14T04:33:27.599Z,15.22
2018-04-14T04:35:55.117Z,15.27
2018-04-14T04:38:22.650Z,15.35
2018-04-14T04:40:50.159Z,15.44
2018-04-14T04:43:17.672Z,16.00
2018-04-14T04:45:45.171Z,16.29
2018-04-14T04:48:12.728Z,16.58
2018-04-14T04:50:40.248Z,16.92
2018-04-14T04:53:07.763Z,17.05
2018-04-14T04:55:35.315Z,16.90
2018-04-14T04:58:02.879Z,16.93
2018-04-14T05:00:30.435Z,17.11
2018-04-14T05:02:57.947Z,17.34
2018-04-14T05:05:25.462Z,17.51
2018-04-14T05:07:52.958Z,17.44
2018-04-14T05:10:20.520Z,17.61
2018-04-14T05:12:48.022Z,17.83
2018-04-14T05:15:15.537Z,17.92
2018-04-14T05:17:43.043Z,18.02
2018-04-14T05:20:10.560Z,18.14
2018-04-14T05:22:38.116Z,18.78
2018-04-14T05:25:05.629Z,19.60
2018-04-14T05:27:33.197Z,19.64
2018-04-14T05:30:00.740Z,19.73
2018-04-14T05:32:28.489Z,19.94
2018-04-14T05:34:56.048Z,20.25
2018-04-14T05:37:23.602Z,20.61
2018-04-14T05:39:51.168Z,21.20
2018-04-14T05:42:18.678Z,20.91
2018-04-14T05:44:46.196Z,20.95
2018-04-14T05:47:13.707Z,21.19
2018-04-14T05:49:41.279Z,21.07
2018-04-14T05:52:08.841Z,21.57
2018-04-14T05:54:36.352Z,21.93
2018-04-14T05:57:03.908Z,22.02
2018-04-14T05:59:31.467Z,21.33
2018-04-14T06:01:59.016Z,22.60
2018-04-14T06:04:26.521Z,22.56
2018-04-14T06:06:54.102Z,23.16
2018-04-14T06:09:21.655Z,23.75
2018-04-14T06:11:49.163Z,23.26
2018-04-14T06:14:16.707Z,23.30
2018-04-14T06:16:44.233Z,22.64
2018-04-14T06:19:11.776Z,23.13
2018-04-14T06:21:39.280Z,23.11
2018-04-14T06:24:06.824Z,23.52
2018-04-14T06:26:34.328Z,22.19
2018-04-14T06:29:01.843Z,22.27
2018-04-14T06:31:29.360Z,22.54
2018-04-14T06:33:56.868Z,22.38
2018-04-14T06:36:24.391Z,22.60
2018-04-14T06:38:51.948Z,22.37
2018-04-14T06:41:19.483Z,23.09
2018-04-14T06:43:46.996Z,23.44
2018-04-14T06:46:14.568Z,24.13
2018-04-14T06:48:42.075Z,24.10
2018-04-14T06:51:09.597Z,24.88
2018-04-14T06:53:37.149Z,25.54
2018-04-14T06:56:04.684Z,25.89
2018-04-14T06:58:32.227Z,25.71
2018-04-14T07:00:59.743Z,26.85
2018-04-14T07:03:27.256Z,26.32
2018-04-14T07:05:54.769Z,25.64
2018-04-14T07:08:22.328Z,25.47
2018-04-14T07:10:49.860Z,24.88
2018-04-14T07:13:17.403Z,24.75
2018-04-14T07:15:44.922Z,27.09
2018-04-14T07:18:12.481Z,28.30
2018-04-14T07:20:40.045Z,28.24
2018-04-14T07:23:07.528Z,27.56
2018-04-14T07:25:35.075Z,27.04
2018-04-14T07:28:02.628Z,26.45
2018-04-14T07:30:30.166Z,26.44
2018-04-14T07:32:57.671Z,27.39
2018-04-14T07:35:25.219Z,27.36
2018-04-14T07:37:52.729Z,28.35
2018-04-14T07:40:20.348Z,28.10
2018-04-14T07:42:47.855Z,26.37
2018-04-14T07:45:15.364Z,26.64
2018-04-14T07:47:42.887Z,26.52
2018-04-14T07:50:10.438Z,27.15
2018-04-14T07:52:37.983Z,26.79
2018-04-14T07:55:05.492Z,27.35
2018-04-14T07:57:33.001Z,27.45
2018-04-14T08:00:00.524Z,27.77
2018-04-14T08:02:28.027Z,28.45
2018-04-14T08:04:55.542Z,28.03
2018-04-14T08:07:23.047Z,29.41
2018-04-14T08:09:50.553Z,28.96
2018-04-14T08:12:18.115Z,28.70
2018-04-14T08:14:45.635Z,28.89
2018-04-14T08:17:13.191Z,29.83
2018-04-14T08:19:40.698Z,31.08
2018-04-14T08:22:08.277Z,30.85
2018-04-14T08:24:35.795Z,29.51
2018-04-14T08:27:03.305Z,29.78
2018-04-14T08:29:30.811Z,29.85
2018-04-14T08:31:58.384Z,28.77
2018-04-14T08:34:25.899Z,28.98
2018-04-14T08:36:53.412Z,30.44
2018-04-14T08:39:20.936Z,31.65
2018-04-14T08:41:48.454Z,31.26
2018-04-14T08:44:15.969Z,30.06
2018-04-14T08:46:43.518Z,30.52
2018-04-14T08:49:11.066Z,29.70
2018-04-14T08:51:38.576Z,29.86
2018-04-14T08:54:06.089Z,30.43
2018-04-14T08:56:33.675Z,30.73
2018-04-14T08:59:01.236Z,31.07
2018-04-14T09:01:28.795Z,31.28
2018-04-14T09:03:56.307Z,31.31
2018-04-14T09:06:23.863Z,31.68
2018-04-14T09:08:51.408Z,31.00
2018-04-14T09:11:18.909Z,31.07
2018-04-14T09:13:46.488Z,30.73
2018-04-14T09:16:14.016Z,31.14
2018-04-14T09:18:41.528Z,31.59
2018-04-14T09:21:09.044Z,32.95
2018-04-14T09:23:36.557Z,32.27
2018-04-14T09:26:04.080Z,30.59
2018-04-14T09:28:31.635Z,30.48
2018-04-14T09:30:59.183Z,31.08
2018-04-14T09:33:26.727Z,31.21
2018-04-14T09:35:54.236Z,30.34
2018-04-14T09:38:21.884Z,31.41
2018-04-14T09:40:49.432Z,30.63
2018-04-14T09:43:16.935Z,30.49
2018-04-14T09:45:44.493Z,30.41
2018-04-14T09:48:12.035Z,30.73
2018-04-14T09:50:39.544Z,30.74
2018-04-14T09:53:07.109Z,32.04
2018-04-14T09:55:34.679Z,31.93
2018-04-14T09:58:02.243Z,31.70
2018-04-14T10:00:29.804Z,32.89
2018-04-14T10:03:00.228Z,33.80
2018-04-14T10:05:27.786Z,33.22
2018-04-14T10:07:55.295Z,33.25
2018-04-14T10:10:22.876Z,32.95
2018-04-14T10:12:50.382Z,32.26
2018-04-14T10:15:17.975Z,32.19
2018-04-14T10:17:45.480Z,31.36
2018-04-14T10:20:12.992Z,31.79
2018-04-14T10:22:40.503Z,31.76
2018-04-14T10:25:08.048Z,32.07
2018-04-14T10:27:35.586Z,32.40
2018-04-14T10:30:04.655Z,32.14
2018-04-14T10:32:32.163Z,32.08
2018-04-14T10:34:59.702Z,32.66
2018-04-14T10:37:27.247Z,32.27
2018-04-14T10:39:54.871Z,32.46
2018-04-14T10:42:22.425Z,30.35
2018-04-14T10:44:49.948Z,32.06
2018-04-14T10:47:17.505Z,31.78
2018-04-14T10:49:45.019Z,32.19
2018-04-14T10:52:12.547Z,32.87
2018-04-14T10:54:40.069Z,32.79
2018-04-14T10:57:07.574Z,32.77
2018-04-14T10:59:35.140Z,32.97
2018-04-14T11:02:02.683Z,32.66
2018-04-14T11:04:30.215Z,31.73
2018-04-14T11:06:57.752Z,32.83
2018-04-14T11:09:25.307Z,32.11
2018-04-14T11:11:52.836Z,32.09
2018-04-14T11:14:20.343Z,32.42
2018-04-14T11:16:47.858Z,32.09
2018-04-14T11:19:15.368Z,32.39
2018-04-14T11:21:42.936Z,32.36
2018-04-14T11:24:10.482Z,31.87
2018-04-14T11:26:38.006Z,33.16
2018-04-14T11:29:05.559Z,33.45
2018-04-14T11:31:33.074Z,33.00
2018-04-14T11:34:00.589Z,32.78
2018-04-14T11:36:28.160Z,32.67
2018-04-14T11:38:55.675Z,32.31
2018-04-14T11:41:23.179Z,32.67
2018-04-14T11:43:50.692Z,33.73
2018-04-14T11:46:18.246Z,32.56
2018-04-14T11:48:45.767Z,31.81
2018-04-14T11:51:13.317Z,32.06
2018-04-14T11:53:40.818Z,33.31
2018-04-14T11:56:08.363Z,33.07
2018-04-14T11:58:35.898Z,33.73
2018-04-14T12:01:03.440Z,34.04
2018-04-14T12:03:31.084Z,34.68
2018-04-14T12:05:58.605Z,33.74
2018-04-14T12:08:26.167Z,33.67
2018-04-14T12:10:53.679Z,32.73
2018-04-14T12:13:21.188Z,32.51
2018-04-14T12:15:48.752Z,32.29
2018-04-14T12:18:16.317Z,32.10
2018-04-14T12:20:43.823Z,31.84
2018-04-14T12:23:11.327Z,32.31
2018-04-14T12:25:38.877Z,31.50
2018-04-14T12:28:06.783Z,31.54
2018-04-14T12:30:34.332Z,29.96
2018-04-14T12:33:01.858Z,30.55
2018-04-14T12:35:29.358Z,31.25
2018-04-14T12:37:59.388Z,30.32
2018-04-14T12:40:26.918Z,29.49
2018-04-14T12:42:54.467Z,30.24
2018-04-14T12:45:22.035Z,30.31
2018-04-14T12:47:49.539Z,29.73
2018-04-14T12:50:17.176Z,30.07
2018-04-14T12:52:44.742Z,29.38
2018-04-14T12:55:12.255Z,30.07
2018-04-14T12:57:39.811Z,30.96
2018-04-14T13:00:07.355Z,30.39
2018-04-14T13:02:34.859Z,30.56
2018-04-14T13:05:02.415Z,30.16
2018-04-14T13:07:29.934Z,29.83
2018-04-14T13:09:57.475Z,29.71
2018-04-14T13:12:25.025Z,29.27
2018-04-14T13:14:52.672Z,29.11
2018-04-14T13:17:20.197Z,28.57
2018-04-14T13:19:47.755Z,28.11
2018-04-14T13:22:15.299Z,27.75
2018-04-14T13:24:42.828Z,27.70
2018-04-14T13:27:10.383Z,27.88
2018-04-14T13:29:37.917Z,27.75
2018-04-14T13:32:05.472Z,27.40
2018-04-14T13:34:33.024Z,27.44
2018-04-14T13:37:00.535Z,27.81
2018-04-14T13:39:28.064Z,27.68
2018-04-14T13:41:55.612Z,27.40
2018-04-14T13:44:23.188Z,27.40
2018-04-14T13:46:50.714Z,26.87
2018-04-14T13:49:18.216Z,26.76
2018-04-14T13:51:45.756Z,26.58
2018-04-14T13:54:13.255Z,27.07
2018-04-14T13:56:40.799Z,27.07
2018-04-14T13:59:08.323Z,27.23
2018-04-14T14:01:35.906Z,27.29
2018-04-14T14:04:03.411Z,27.17
2018-04-14T14:06:30.977Z,27.45
2018-04-14T14:08:58.486Z,27.44
2018-04-14T14:11:26.032Z,27.49
2018-04-14T14:13:53.536Z,27.37
2018-04-14T14:16:21.046Z,26.89
2018-04-14T14:18:48.611Z,26.62
2018-04-14T14:21:16.189Z,26.45
2018-04-14T14:23:43.690Z,26.32
2018-04-14T14:26:11.203Z,26.51
2018-04-14T14:28:38.752Z,26.54
2018-04-14T14:31:06.302Z,26.41
2018-04-14T14:33:33.871Z,26.12
2018-04-14T14:36:01.421Z,26.41
2018-04-14T14:38:28.942Z,26.43
2018-04-14T14:40:56.452Z,26.38
2018-04-14T14:43:24.015Z,26.05
2018-04-14T14:45:51.575Z,25.72
2018-04-14T14:48:19.089Z,25.64
2018-04-14T14:50:46.595Z,25.54
2018-04-14T14:53:14.147Z,25.44
2018-04-14T14:55:41.708Z,25.54
2018-04-14T14:58:09.226Z,25.60
2018-04-14T15:00:36.739Z,25.54
2018-04-14T15:03:04.297Z,25.63
2018-04-14T15:05:31.799Z,25.57
2018-04-14T15:07:59.312Z,25.51
2018-04-14T15:10:26.859Z,25.64
2018-04-14T15:12:54.362Z,25.13
2018-04-14T15:15:21.876Z,25.30
2018-04-14T15:17:49.396Z,25.30
2018-04-14T15:20:16.944Z,25.14
2018-04-14T15:22:44.461Z,24.97
2018-04-14T15:25:12.059Z,25.14
2018-04-14T15:27:39.581Z,25.12
2018-04-14T15:30:07.127Z,24.75
2018-04-14T15:32:34.631Z,24.83
2018-04-14T15:35:02.154Z,24.61
2018-04-14T15:37:29.710Z,24.57
2018-04-14T15:39:57.222Z,24.44
2018-04-14T15:42:24.797Z,24.76
2018-04-14T15:44:52.304Z,24.56
2018-04-14T15:47:19.977Z,24.46
2018-04-14T15:49:47.519Z,24.43
2018-04-14T15:52:15.032Z,24.56
2018-04-14T15:54:42.548Z,24.46
2018-04-14T15:57:10.051Z,24.35
2018-04-14T15:59:37.566Z,24.28
2018-04-14T16:02:05.111Z,24.07
2018-04-14T16:04:32.659Z,24.27
2018-04-14T16:07:00.223Z,24.03
2018-04-14T16:09:27.727Z,23.85
2018-04-14T16:11:55.243Z,23.82
2018-04-14T16:14:22.789Z,23.88
2018-04-14T16:16:50.303Z,23.96
2018-04-14T16:19:17.908Z,23.96
2018-04-14T16:21:45.449Z,23.93
2018-04-14T16:24:12.987Z,23.68
2018-04-14T16:26:40.539Z,23.68
2018-04-14T16:29:08.051Z,23.49
2018-04-14T16:31:35.605Z,23.65
2018-04-14T16:34:03.120Z,23.74
2018-04-14T16:36:30.638Z,23.67
2018-04-14T16:38:58.175Z,23.81
2018-04-14T16:41:25.693Z,23.75
2018-04-14T16:43:53.250Z,23.66
2018-04-14T16:46:20.864Z,23.31
2018-04-14T16:48:48.423Z,23.33
2018-04-14T16:51:15.932Z,23.43
2018-04-14T16:53:43.436Z,23.51
2018-04-14T16:56:10.994Z,23.45
2018-04-14T16:58:38.539Z,23.44
2018-04-14T17:01:06.136Z,23.32
2018-04-14T17:03:33.699Z,23.44
2018-04-14T17:06:01.239Z,23.14
2018-04-14T17:08:28.752Z,23.14
2018-04-14T17:10:56.270Z,23.10
2018-04-14T17:13:24.662Z,23.11
2018-04-14T17:15:52.203Z,22.93
2018-04-14T17:18:19.751Z,22.79
2018-04-14T17:20:47.271Z,22.84
2018-04-14T17:23:14.783Z,22.94
2018-04-14T17:25:42.337Z,22.80
2018-04-14T17:28:09.880Z,22.85
2018-04-14T17:30:37.418Z,22.90
2018-04-14T17:33:04.940Z,22.82
2018-04-14T17:35:32.483Z,22.69
2018-04-14T17:38:00.026Z,22.58
2018-04-14T17:40:27.592Z,22.63
2018-04-14T17:42:55.139Z,22.55
2018-04-14T17:45:22.638Z,22.49
2018-04-14T17:47:50.196Z,22.55
2018-04-14T17:50:17.712Z,22.51
2018-04-14T17:52:45.225Z,22.35
2018-04-14T17:55:12.736Z,22.02
2018-04-14T17:57:40.244Z,22.11
2018-04-14T18:00:07.796Z,21.94
2018-04-14T18:02:35.344Z,21.63
2018-04-14T18:05:02.883Z,21.78
2018-04-14T18:07:30.388Z,21.76
2018-04-14T18:09:57.942Z,21.71
2018-04-14T18:12:25.448Z,21.66
2018-04-14T18:14:52.952Z,21.75
2018-04-14T18:17:20.517Z,21.82
2018-04-14T18:19:48.051Z,21.80
2018-04-14T18:22:15.576Z,21.67
2018-04-14T18:24:43.129Z,21.67
2018-04-14T18:27:10.624Z,21.60
2018-04-14T18:29:38.176Z,21.55
2018-04-14T18:32:05.725Z,21.47
2018-04-14T18:34:33.230Z,21.39
2018-04-14T18:37:00.790Z,21.40
2018-04-14T18:39:28.358Z,21.42
2018-04-14T18:41:56.741Z,21.27
2018-04-14T18:46:51.097Z,21.09
2018-04-14T18:49:18.607Z,21.06
2018-04-14T18:51:46.168Z,20.95
2018-04-14T18:54:13.876Z,20.79
2018-04-14T18:56:41.375Z,20.76
2018-04-14T18:59:09.815Z,20.80
2018-04-14T19:01:37.369Z,20.78
2018-04-14T19:04:04.926Z,20.74
2018-04-14T19:06:32.440Z,20.75
2018-04-14T19:09:00.043Z,20.75
2018-04-14T19:11:27.543Z,20.76
2018-04-14T19:13:55.047Z,20.59
2018-04-14T19:16:22.577Z,20.53
2018-04-14T19:18:50.083Z,20.49
2018-04-14T19:21:17.641Z,20.36
2018-04-14T19:23:45.148Z,20.34
2018-04-14T19:26:12.708Z,20.19
2018-04-14T19:28:40.218Z,20.11
2018-04-14T19:31:07.727Z,20.04
2018-04-14T19:33:35.238Z,19.91
2018-04-14T19:36:02.757Z,20.00
2018-04-14T19:38:30.270Z,19.78
2018-04-14T19:40:57.783Z,19.73
2018-04-14T19:43:25.294Z,19.81
2018-04-14T19:45:52.852Z,19.88
2018-04-14T19:48:20.370Z,19.49
2018-04-14T19:50:47.935Z,19.72
2018-04-14T19:53:15.510Z,19.87
2018-04-14T19:55:43.033Z,19.78
2018-04-14T19:58:10.538Z,19.86
2018-04-14T20:00:38.088Z,19.86
2018-04-14T20:03:05.596Z,19.95
2018-04-14T20:05:33.150Z,19.99
2018-04-14T20:08:00.655Z,19.81
2018-04-14T20:10:28.213Z,19.72
2018-04-14T20:12:55.720Z,19.58
2018-04-14T20:15:23.235Z,19.61
2018-04-14T20:17:50.798Z,19.66
2018-04-14T20:20:18.313Z,19.58
2018-04-14T20:22:45.961Z,19.49
2018-04-14T20:25:13.525Z,19.63
2018-04-14T20:27:41.007Z,19.64
2018-04-14T20:30:08.565Z,19.51
2018-04-14T20:32:36.149Z,19.61
2018-04-14T20:35:03.695Z,19.55
2018-04-14T20:37:31.266Z,19.41
2018-04-14T20:39:58.788Z,19.42
2018-04-14T20:42:26.291Z,19.19
2018-04-14T20:44:53.798Z,19.29
2018-04-14T20:47:21.317Z,19.26
2018-04-14T20:49:48.876Z,19.28
2018-04-14T20:52:16.424Z,19.25
2018-04-14T20:54:43.938Z,19.08
2018-04-14T20:57:11.451Z,19.04
2018-04-14T20:59:39.013Z,19.01
2018-04-14T21:02:06.524Z,18.87
2018-04-14T21:04:34.089Z,18.99
2018-04-14T21:07:01.606Z,18.84
2018-04-14T21:09:29.112Z,18.76
2018-04-14T21:11:56.622Z,18.84
2018-04-14T21:14:24.776Z,18.73
2018-04-14T21:16:52.324Z,18.87
2018-04-14T21:19:19.834Z,18.81
2018-04-14T21:21:47.345Z,18.82
2018-04-14T21:24:14.873Z,18.80
2018-04-14T21:26:42.508Z,18.76
2018-04-14T21:29:10.032Z,18.78
2018-04-14T21:31:37.608Z,18.73
2018-04-14T21:34:05.170Z,18.67
2018-04-14T21:36:32.775Z,18.47
2018-04-14T21:39:00.317Z,18.27
2018-04-14T21:41:27.872Z,18.34
2018-04-14T21:43:55.427Z,18.28
2018-04-14T21:46:23.048Z,18.28
2018-04-14T21:48:50.624Z,18.35
2018-04-14T21:51:18.280Z,18.41
2018-04-14T21:53:45.901Z,18.45
2018-04-14T21:56:13.441Z,18.43
2018-04-14T21:58:41.027Z,18.43
2018-04-14T22:01:08.617Z,18.48
2018-04-14T22:03:36.201Z,18.45
2018-04-14T22:06:03.749Z,18.52
2018-04-14T22:08:31.333Z,18.53
2018-04-14T22:10:58.872Z,18.47
2018-04-14T22:13:26.469Z,18.45
2018-04-14T22:15:54.061Z,18.42
2018-04-14T22:18:21.658Z,18.42
2018-04-14T22:20:49.208Z,18.43
2018-04-14T22:23:16.789Z,18.39
2018-04-14T22:25:44.329Z,18.30
2018-04-14T22:28:11.880Z,18.39
2018-04-14T22:30:39.430Z,18.33
2018-04-14T22:33:07.013Z,18.31
2018-04-14T22:35:34.614Z,18.21
2018-04-14T22:38:02.161Z,18.25
2018-04-14T22:40:29.701Z,18.24
2018-04-14T22:42:57.248Z,18.09
2018-04-14T22:45:24.787Z,18.15
2018-04-14T22:47:52.333Z,18.13
2018-04-14T22:50:19.881Z,18.16
2018-04-14T22:52:47.420Z,18.01
2018-04-14T22:55:15.017Z,17.92
2018-04-14T22:57:42.586Z,17.93
2018-04-14T23:00:10.193Z,18.06
2018-04-14T23:02:37.785Z,18.01
2018-04-14T23:05:05.329Z,17.92
2018-04-14T23:07:32.913Z,17.77
2018-04-14T23:10:00.469Z,17.82
2018-04-14T23:12:28.013Z,17.88
2018-04-14T23:14:55.561Z,17.84
2018-04-14T23:17:23.152Z,17.86
2018-04-14T23:19:50.706Z,17.87
2018-04-14T23:22:18.252Z,17.91
2018-04-14T23:24:45.809Z,17.87
2018-04-14T23:27:13.406Z,17.77
2018-04-14T23:29:40.965Z,17.71
2018-04-14T23:32:08.557Z,17.64
2018-04-14T23:34:36.104Z,17.58
2018-04-14T23:37:03.683Z,17.44
2018-04-14T23:39:31.230Z,17.41
2018-04-14T23:41:58.767Z,17.46
2018-04-14T23:44:26.366Z,17.30
2018-04-14T23:46:53.920Z,17.37
2018-04-14T23:49:21.478Z,17.35
2018-04-14T23:51:49.056Z,17.39
2018-04-14T23:54:16.628Z,17.28
2018-04-14T23:56:44.212Z,17.28
2018-04-14T23:59:11.765Z,17.25
